LEHC

Details ICAO LEHC (HSK)
Name Huesca/Pirineos
Region Spain
Timezone Europe/Madrid (UTC+1.0)
Plans Departing 7
Arriving 11
Stats Elevation 1,768 ft / 539 m (AMSL)
Location 42.078366° -0.320055°
Runways 2
Magnetic Variation 0.174° E
Sunrise 2017-12-17 07:25:18 UTC / 2017-12-17 08:25:18 Local
Sunset 2017-12-17 16:32:14 UTC / 2017-12-17 17:32:14 Local
Advertisement - Login to hide

Runways

ID Width Length Bearing (true) Bearing (mag) Surface Threshold Offset Overrun Length
12L 39 ft / 12 m 2,010 ft / 613 m 122.99° 122.82° Asphalt 0 ft / 0 m 0 ft / 0 m
12R 148 ft / 45 m 6,881 ft / 2,097 m 122.91° 122.74° Asphalt 0 ft / 0 m 148 ft / 45 m
30L 148 ft / 45 m 6,881 ft / 2,097 m 302.93° 302.76° Asphalt 0 ft / 0 m 0 ft / 0 m
30R 39 ft / 12 m 2,010 ft / 613 m 302.99° 302.82° Asphalt 0 ft / 0 m 0 ft / 0 m

Map

Weather


0- 5 10 15 20 25 30 35+ Temperature / ° C

Clouds and Precipitation
Forecast for 2017-12-18 00:00 UTC. Updated 16 minutes ago

Ground ~20,000 ft ~40,000 ft Winds

METAR

LEHC 172130Z AUTO 27010KT CAVOK 05/00 Q1028

TAF

Not found

Frequencies

Tower 128.95 MHz TWR
Warning: Do not use this data for real-world aviation or navigation. No guarantee of current accuracy is given.